Higginsport, Ohio
Current Conditions -  °F | °C
As of 12:35 AM on Wednesday 26 Nov 2014 (Local Time) from KFGX Reporting Station
Clear Clear  
Wind Chill: 26°   Ceiling: Unl
Heat Index: 32°   Visibility: 10mi
Dew Point: 28°   Wind: 7mph
Humidity: 86%   Direction: 30°NNE
Pressure: 30.15"   Gusts: NA
Location:  38.79°N, 83.97°W
Report Text: KFGX 260535Z AUTO 03006KT 10SM CLR 00/M02 A3015 RMK AO2 T00001021
Loading
Personal Weather Stations






























Interactive Weather Map New forecast layout! Learn more

10-Day Weather Forecast

Advertisements
Track Severe Weather on mobile